sensor_id;sensor_type;location;lat;lon;timestamp;P1;durP1;ratioP1;P2;durP2;ratioP2
21581;SDS011;10952;50.836;4.348;2023-03-23T00:01:06;13.20;;;5.57;;
21581;SDS011;10952;50.836;4.348;2023-03-23T00:03:35;8.83;;;5.33;;
21581;SDS011;10952;50.836;4.348;2023-03-23T00:06:01;10.10;;;5.03;;
21581;SDS011;10952;50.836;4.348;2023-03-23T00:08:34;9.60;;;5.00;;
21581;SDS011;10952;50.836;4.348;2023-03-23T00:11:13;9.20;;;5.13;;
21581;SDS011;10952;50.836;4.348;2023-03-23T00:13:47;5.77;;;4.00;;
21581;SDS011;10952;50.836;4.348;2023-03-23T00:16:17;7.50;;;4.70;;
21581;SDS011;10952;50.836;4.348;2023-03-23T00:18:47;8.90;;;4.53;;
21581;SDS011;10952;50.836;4.348;2023-03-23T00:21:20;6.47;;;3.87;;
21581;SDS011;10952;50.836;4.348;2023-03-23T00:23:50;9.60;;;4.60;;
21581;SDS011;10952;50.836;4.348;2023-03-23T00:26:17;5.90;;;4.00;;
21581;SDS011;10952;50.836;4.348;2023-03-23T00:28:43;9.27;;;4.77;;
21581;SDS011;10952;50.836;4.348;2023-03-23T00:31:11;10.40;;;4.93;;
21581;SDS011;10952;50.836;4.348;2023-03-23T00:33:37;7.70;;;4.87;;
21581;SDS011;10952;50.836;4.348;2023-03-23T00:36:08;9.13;;;4.20;;
21581;SDS011;10952;50.836;4.348;2023-03-23T00:38:35;7.60;;;4.43;;
21581;SDS011;10952;50.836;4.348;2023-03-23T00:41:02;9.03;;;4.23;;
21581;SDS011;10952;50.836;4.348;2023-03-23T00:43:28;6.60;;;4.00;;
21581;SDS011;10952;50.836;4.348;2023-03-23T00:45:55;9.50;;;4.27;;
21581;SDS011;10952;50.836;4.348;2023-03-23T00:48:23;6.83;;;4.50;;
21581;SDS011;10952;50.836;4.348;2023-03-23T00:50:49;9.27;;;4.27;;
21581;SDS011;10952;50.836;4.348;2023-03-23T00:53:16;6.03;;;3.77;;
21581;SDS011;10952;50.836;4.348;2023-03-23T00:55:43;6.63;;;4.00;;
21581;SDS011;10952;50.836;4.348;2023-03-23T00:58:10;5.53;;;4.00;;
21581;SDS011;10952;50.836;4.348;2023-03-23T01:00:37;6.83;;;4.37;;
21581;SDS011;10952;50.836;4.348;2023-03-23T01:03:03;6.93;;;4.37;;
21581;SDS011;10952;50.836;4.348;2023-03-23T01:05:29;8.63;;;4.20;;
21581;SDS011;10952;50.836;4.348;2023-03-23T01:08:00;6.70;;;4.27;;
21581;SDS011;10952;50.836;4.348;2023-03-23T01:10:26;6.40;;;4.53;;
21581;SDS011;10952;50.836;4.348;2023-03-23T01:12:52;7.27;;;4.20;;
21581;SDS011;10952;50.836;4.348;2023-03-23T01:15:19;7.47;;;4.60;;
21581;SDS011;10952;50.836;4.348;2023-03-23T01:17:45;5.97;;;3.93;;
21581;SDS011;10952;50.836;4.348;2023-03-23T01:20:12;10.67;;;4.70;;
21581;SDS011;10952;50.836;4.348;2023-03-23T01:22:40;7.73;;;4.27;;
21581;SDS011;10952;50.836;4.348;2023-03-23T01:25:07;6.90;;;4.67;;
21581;SDS011;10952;50.836;4.348;2023-03-23T01:27:34;7.30;;;4.23;;
21581;SDS011;10952;50.836;4.348;2023-03-23T01:30:00;4.90;;;3.70;;
21581;SDS011;10952;50.836;4.348;2023-03-23T01:32:26;8.97;;;4.37;;
21581;SDS011;10952;50.836;4.348;2023-03-23T01:34:52;6.47;;;4.10;;
21581;SDS011;10952;50.836;4.348;2023-03-23T01:37:17;7.60;;;3.90;;
21581;SDS011;10952;50.836;4.348;2023-03-23T01:39:44;6.37;;;4.00;;
21581;SDS011;10952;50.836;4.348;2023-03-23T01:42:10;7.07;;;4.00;;
21581;SDS011;10952;50.836;4.348;2023-03-23T01:47:02;9.53;;;4.00;;
21581;SDS011;10952;50.836;4.348;2023-03-23T01:49:29;6.37;;;3.90;;
21581;SDS011;10952;50.836;4.348;2023-03-23T01:52:05;7.87;;;3.83;;
21581;SDS011;10952;50.836;4.348;2023-03-23T01:54:36;6.67;;;3.37;;
21581;SDS011;10952;50.836;4.348;2023-03-23T01:57:07;9.00;;;4.00;;
21581;SDS011;10952;50.836;4.348;2023-03-23T01:59:38;6.27;;;3.57;;
21581;SDS011;10952;50.836;4.348;2023-03-23T02:02:05;5.13;;;3.50;;
21581;SDS011;10952;50.836;4.348;2023-03-23T02:04:30;7.33;;;3.87;;
21581;SDS011;10952;50.836;4.348;2023-03-23T02:06:58;8.57;;;4.17;;
21581;SDS011;10952;50.836;4.348;2023-03-23T02:09:25;7.47;;;3.47;;
21581;SDS011;10952;50.836;4.348;2023-03-23T02:11:51;7.50;;;3.73;;
21581;SDS011;10952;50.836;4.348;2023-03-23T02:14:19;7.43;;;3.37;;
21581;SDS011;10952;50.836;4.348;2023-03-23T02:16:55;5.13;;;3.00;;
21581;SDS011;10952;50.836;4.348;2023-03-23T02:24:57;7.03;;;2.57;;
21581;SDS011;10952;50.836;4.348;2023-03-23T02:35:34;4.60;;;2.30;;
21581;SDS011;10952;50.836;4.348;2023-03-23T02:38:05;8.03;;;2.67;;
21581;SDS011;10952;50.836;4.348;2023-03-23T02:40:39;7.93;;;2.27;;
21581;SDS011;10952;50.836;4.348;2023-03-23T02:43:12;5.97;;;1.90;;
21581;SDS011;10952;50.836;4.348;2023-03-23T02:45:40;3.43;;;1.77;;
21581;SDS011;10952;50.836;4.348;2023-03-23T02:48:08;4.27;;;1.73;;
21581;SDS011;10952;50.836;4.348;2023-03-23T02:50:36;4.40;;;2.10;;
21581;SDS011;10952;50.836;4.348;2023-03-23T02:53:05;3.83;;;1.60;;
21581;SDS011;10952;50.836;4.348;2023-03-23T02:55:35;5.73;;;1.60;;
21581;SDS011;10952;50.836;4.348;2023-03-23T02:58:07;5.50;;;1.93;;
21581;SDS011;10952;50.836;4.348;2023-03-23T03:00:33;4.17;;;1.80;;
21581;SDS011;10952;50.836;4.348;2023-03-23T03:02:59;4.37;;;1.80;;
21581;SDS011;10952;50.836;4.348;2023-03-23T03:10:37;4.10;;;1.40;;
21581;SDS011;10952;50.836;4.348;2023-03-23T03:13:50;2.77;;;1.70;;
21581;SDS011;10952;50.836;4.348;2023-03-23T03:19:39;5.90;;;1.53;;
21581;SDS011;10952;50.836;4.348;2023-03-23T03:22:09;4.87;;;1.30;;
21581;SDS011;10952;50.836;4.348;2023-03-23T03:24:35;6.30;;;1.70;;
21581;SDS011;10952;50.836;4.348;2023-03-23T03:27:02;7.43;;;1.70;;
21581;SDS011;10952;50.836;4.348;2023-03-23T03:29:35;4.00;;;1.40;;
21581;SDS011;10952;50.836;4.348;2023-03-23T03:32:03;6.60;;;1.70;;
21581;SDS011;10952;50.836;4.348;2023-03-23T03:34:31;7.47;;;1.70;;
21581;SDS011;10952;50.836;4.348;2023-03-23T03:36:58;5.77;;;1.60;;
21581;SDS011;10952;50.836;4.348;2023-03-23T03:39:25;3.70;;;1.40;;
21581;SDS011;10952;50.836;4.348;2023-03-23T03:41:52;4.53;;;1.60;;
21581;SDS011;10952;50.836;4.348;2023-03-23T03:44:17;5.47;;;1.90;;
21581;SDS011;10952;50.836;4.348;2023-03-23T03:46:43;4.50;;;1.40;;
21581;SDS011;10952;50.836;4.348;2023-03-23T03:49:10;7.47;;;1.70;;
21581;SDS011;10952;50.836;4.348;2023-03-23T03:51:37;5.00;;;1.70;;
21581;SDS011;10952;50.836;4.348;2023-03-23T03:54:04;7.33;;;1.50;;
21581;SDS011;10952;50.836;4.348;2023-03-23T03:56:30;6.77;;;1.70;;
21581;SDS011;10952;50.836;4.348;2023-03-23T03:58:58;5.10;;;1.57;;
21581;SDS011;10952;50.836;4.348;2023-03-23T04:01:24;6.77;;;2.10;;
21581;SDS011;10952;50.836;4.348;2023-03-23T04:03:50;8.40;;;1.80;;
21581;SDS011;10952;50.836;4.348;2023-03-23T04:06:16;4.97;;;1.63;;
21581;SDS011;10952;50.836;4.348;2023-03-23T04:08:42;7.97;;;1.83;;
21581;SDS011;10952;50.836;4.348;2023-03-23T04:11:10;9.10;;;1.93;;
21581;SDS011;10952;50.836;4.348;2023-03-23T04:13:38;8.00;;;1.53;;
21581;SDS011;10952;50.836;4.348;2023-03-23T04:16:05;9.30;;;1.93;;
21581;SDS011;10952;50.836;4.348;2023-03-23T04:18:31;9.43;;;1.80;;
21581;SDS011;10952;50.836;4.348;2023-03-23T04:20:58;9.13;;;1.70;;
21581;SDS011;10952;50.836;4.348;2023-03-23T04:23:24;9.07;;;2.13;;
21581;SDS011;10952;50.836;4.348;2023-03-23T04:25:51;9.33;;;1.83;;
21581;SDS011;10952;50.836;4.348;2023-03-23T04:28:21;7.23;;;1.80;;
21581;SDS011;10952;50.836;4.348;2023-03-23T04:30:49;7.53;;;1.70;;
21581;SDS011;10952;50.836;4.348;2023-03-23T04:33:18;6.17;;;1.50;;
21581;SDS011;10952;50.836;4.348;2023-03-23T04:35:45;8.07;;;1.67;;
21581;SDS011;10952;50.836;4.348;2023-03-23T04:38:12;11.17;;;1.60;;
21581;SDS011;10952;50.836;4.348;2023-03-23T04:40:41;5.77;;;1.83;;
21581;SDS011;10952;50.836;4.348;2023-03-23T04:43:08;8.13;;;1.80;;
21581;SDS011;10952;50.836;4.348;2023-03-23T04:45:34;8.83;;;1.47;;
21581;SDS011;10952;50.836;4.348;2023-03-23T04:48:02;10.10;;;1.70;;
21581;SDS011;10952;50.836;4.348;2023-03-23T04:50:30;7.27;;;1.43;;
21581;SDS011;10952;50.836;4.348;2023-03-23T04:52:58;8.63;;;2.00;;
21581;SDS011;10952;50.836;4.348;2023-03-23T04:55:29;6.73;;;1.60;;
21581;SDS011;10952;50.836;4.348;2023-03-23T04:57:56;8.97;;;2.17;;
21581;SDS011;10952;50.836;4.348;2023-03-23T05:00:26;6.20;;;1.67;;
21581;SDS011;10952;50.836;4.348;2023-03-23T05:02:52;9.53;;;1.77;;
21581;SDS011;10952;50.836;4.348;2023-03-23T05:05:20;4.30;;;1.53;;
21581;SDS011;10952;50.836;4.348;2023-03-23T05:07:47;5.53;;;1.60;;
21581;SDS011;10952;50.836;4.348;2023-03-23T05:10:12;8.07;;;1.50;;
21581;SDS011;10952;50.836;4.348;2023-03-23T05:12:40;5.93;;;1.50;;
21581;SDS011;10952;50.836;4.348;2023-03-23T05:15:08;5.03;;;1.50;;
21581;SDS011;10952;50.836;4.348;2023-03-23T05:17:36;8.13;;;1.70;;
21581;SDS011;10952;50.836;4.348;2023-03-23T05:20:04;8.53;;;2.23;;
21581;SDS011;10952;50.836;4.348;2023-03-23T05:22:37;7.97;;;1.90;;
21581;SDS011;10952;50.836;4.348;2023-03-23T05:25:05;8.73;;;3.00;;
21581;SDS011;10952;50.836;4.348;2023-03-23T05:27:34;5.73;;;1.87;;
21581;SDS011;10952;50.836;4.348;2023-03-23T05:30:04;7.73;;;2.47;;
21581;SDS011;10952;50.836;4.348;2023-03-23T05:32:32;6.53;;;2.10;;
21581;SDS011;10952;50.836;4.348;2023-03-23T05:34:58;5.17;;;2.10;;
21581;SDS011;10952;50.836;4.348;2023-03-23T05:37:27;5.80;;;2.17;;
21581;SDS011;10952;50.836;4.348;2023-03-23T05:39:58;7.43;;;2.03;;
21581;SDS011;10952;50.836;4.348;2023-03-23T05:42:30;7.57;;;2.03;;
21581;SDS011;10952;50.836;4.348;2023-03-23T05:44:56;13.23;;;2.47;;
21581;SDS011;10952;50.836;4.348;2023-03-23T05:47:23;6.57;;;1.83;;
21581;SDS011;10952;50.836;4.348;2023-03-23T05:49:53;10.63;;;2.20;;
21581;SDS011;10952;50.836;4.348;2023-03-23T05:52:18;4.90;;;1.60;;
21581;SDS011;10952;50.836;4.348;2023-03-23T05:54:45;8.00;;;2.20;;
21581;SDS011;10952;50.836;4.348;2023-03-23T05:57:11;8.90;;;1.93;;
21581;SDS011;10952;50.836;4.348;2023-03-23T05:59:37;6.03;;;1.93;;
21581;SDS011;10952;50.836;4.348;2023-03-23T06:02:03;7.50;;;2.07;;
21581;SDS011;10952;50.836;4.348;2023-03-23T06:04:30;6.27;;;1.70;;
21581;SDS011;10952;50.836;4.348;2023-03-23T06:06:58;7.53;;;1.83;;
21581;SDS011;10952;50.836;4.348;2023-03-23T06:09:25;8.13;;;2.17;;
21581;SDS011;10952;50.836;4.348;2023-03-23T06:11:51;7.73;;;2.13;;
21581;SDS011;10952;50.836;4.348;2023-03-23T06:14:17;6.83;;;1.63;;
21581;SDS011;10952;50.836;4.348;2023-03-23T06:16:43;9.27;;;1.83;;
21581;SDS011;10952;50.836;4.348;2023-03-23T06:19:12;8.33;;;1.93;;
21581;SDS011;10952;50.836;4.348;2023-03-23T06:21:38;10.30;;;1.80;;
21581;SDS011;10952;50.836;4.348;2023-03-23T06:24:03;7.13;;;1.93;;
21581;SDS011;10952;50.836;4.348;2023-03-23T06:26:37;6.50;;;2.30;;
21581;SDS011;10952;50.836;4.348;2023-03-23T06:29:04;6.00;;;1.67;;
21581;SDS011;10952;50.836;4.348;2023-03-23T06:31:41;10.67;;;2.67;;
21581;SDS011;10952;50.836;4.348;2023-03-23T06:34:12;9.03;;;2.17;;
21581;SDS011;10952;50.836;4.348;2023-03-23T06:36:38;11.23;;;2.30;;
21581;SDS011;10952;50.836;4.348;2023-03-23T06:39:04;14.23;;;2.50;;
21581;SDS011;10952;50.836;4.348;2023-03-23T06:41:33;10.57;;;2.87;;
21581;SDS011;10952;50.836;4.348;2023-03-23T06:43:59;15.33;;;2.33;;
21581;SDS011;10952;50.836;4.348;2023-03-23T06:46:25;9.20;;;2.00;;
21581;SDS011;10952;50.836;4.348;2023-03-23T06:48:52;9.40;;;1.77;;
21581;SDS011;10952;50.836;4.348;2023-03-23T06:51:18;10.37;;;2.30;;
21581;SDS011;10952;50.836;4.348;2023-03-23T06:53:44;9.90;;;2.40;;
21581;SDS011;10952;50.836;4.348;2023-03-23T06:56:10;9.87;;;2.70;;
21581;SDS011;10952;50.836;4.348;2023-03-23T06:58:38;9.73;;;2.77;;
21581;SDS011;10952;50.836;4.348;2023-03-23T07:01:03;9.13;;;2.87;;
21581;SDS011;10952;50.836;4.348;2023-03-23T07:03:29;9.93;;;2.40;;
21581;SDS011;10952;50.836;4.348;2023-03-23T07:05:56;11.63;;;2.30;;
21581;SDS011;10952;50.836;4.348;2023-03-23T07:08:22;7.23;;;2.37;;
21581;SDS011;10952;50.836;4.348;2023-03-23T07:10:50;8.73;;;2.20;;
21581;SDS011;10952;50.836;4.348;2023-03-23T07:13:17;2.17;;;0.80;;
21581;SDS011;10952;50.836;4.348;2023-03-23T07:15:43;5.33;;;1.27;;
21581;SDS011;10952;50.836;4.348;2023-03-23T07:18:09;2.53;;;1.17;;
21581;SDS011;10952;50.836;4.348;2023-03-23T07:20:34;4.03;;;1.40;;
21581;SDS011;10952;50.836;4.348;2023-03-23T07:23:01;4.00;;;0.93;;
21581;SDS011;10952;50.836;4.348;2023-03-23T07:25:27;4.07;;;1.30;;
21581;SDS011;10952;50.836;4.348;2023-03-23T07:27:53;3.63;;;1.03;;
21581;SDS011;10952;50.836;4.348;2023-03-23T07:30:18;3.07;;;1.63;;
21581;SDS011;10952;50.836;4.348;2023-03-23T07:32:44;3.17;;;1.40;;
21581;SDS011;10952;50.836;4.348;2023-03-23T07:35:10;4.40;;;1.80;;
21581;SDS011;10952;50.836;4.348;2023-03-23T07:37:36;7.67;;;2.10;;
21581;SDS011;10952;50.836;4.348;2023-03-23T07:40:02;6.37;;;2.10;;
21581;SDS011;10952;50.836;4.348;2023-03-23T07:42:39;5.67;;;1.87;;
21581;SDS011;10952;50.836;4.348;2023-03-23T07:45:09;3.03;;;1.80;;
21581;SDS011;10952;50.836;4.348;2023-03-23T07:47:36;10.63;;;2.27;;
21581;SDS011;10952;50.836;4.348;2023-03-23T07:50:02;11.40;;;3.33;;
21581;SDS011;10952;50.836;4.348;2023-03-23T07:52:28;10.27;;;2.73;;
21581;SDS011;10952;50.836;4.348;2023-03-23T07:54:55;6.90;;;2.50;;
21581;SDS011;10952;50.836;4.348;2023-03-23T07:57:21;10.13;;;3.23;;
21581;SDS011;10952;50.836;4.348;2023-03-23T07:59:47;11.77;;;2.77;;
21581;SDS011;10952;50.836;4.348;2023-03-23T08:02:13;8.67;;;2.53;;
21581;SDS011;10952;50.836;4.348;2023-03-23T08:04:39;6.40;;;2.10;;
21581;SDS011;10952;50.836;4.348;2023-03-23T08:07:05;6.77;;;1.93;;
21581;SDS011;10952;50.836;4.348;2023-03-23T08:09:31;7.23;;;2.80;;
21581;SDS011;10952;50.836;4.348;2023-03-23T08:11:56;5.73;;;1.53;;
21581;SDS011;10952;50.836;4.348;2023-03-23T08:14:22;5.40;;;1.90;;
21581;SDS011;10952;50.836;4.348;2023-03-23T08:16:51;5.53;;;1.77;;
21581;SDS011;10952;50.836;4.348;2023-03-23T08:19:17;4.90;;;1.40;;
21581;SDS011;10952;50.836;4.348;2023-03-23T08:21:43;4.87;;;1.47;;
21581;SDS011;10952;50.836;4.348;2023-03-23T08:24:08;3.93;;;1.20;;
21581;SDS011;10952;50.836;4.348;2023-03-23T08:26:36;7.63;;;1.73;;
21581;SDS011;10952;50.836;4.348;2023-03-23T08:29:02;4.37;;;1.43;;
21581;SDS011;10952;50.836;4.348;2023-03-23T08:31:29;5.00;;;1.73;;
21581;SDS011;10952;50.836;4.348;2023-03-23T08:33:54;6.77;;;2.43;;
21581;SDS011;10952;50.836;4.348;2023-03-23T08:36:21;11.93;;;4.37;;
21581;SDS011;10952;50.836;4.348;2023-03-23T08:38:48;10.47;;;1.83;;
21581;SDS011;10952;50.836;4.348;2023-03-23T08:41:16;7.87;;;2.60;;
21581;SDS011;10952;50.836;4.348;2023-03-23T08:43:42;3.27;;;1.80;;
21581;SDS011;10952;50.836;4.348;2023-03-23T08:46:08;5.70;;;1.57;;
21581;SDS011;10952;50.836;4.348;2023-03-23T08:48:36;8.93;;;1.50;;
21581;SDS011;10952;50.836;4.348;2023-03-23T08:51:03;6.40;;;2.20;;
21581;SDS011;10952;50.836;4.348;2023-03-23T08:53:30;10.90;;;1.90;;
21581;SDS011;10952;50.836;4.348;2023-03-23T08:55:56;8.07;;;2.07;;
21581;SDS011;10952;50.836;4.348;2023-03-23T08:58:27;4.27;;;2.03;;
21581;SDS011;10952;50.836;4.348;2023-03-23T09:00:54;6.47;;;2.17;;
21581;SDS011;10952;50.836;4.348;2023-03-23T09:03:19;5.67;;;1.97;;
21581;SDS011;10952;50.836;4.348;2023-03-23T09:05:45;5.23;;;1.77;;
21581;SDS011;10952;50.836;4.348;2023-03-23T09:08:11;5.83;;;1.83;;
21581;SDS011;10952;50.836;4.348;2023-03-23T09:10:37;5.17;;;1.60;;
21581;SDS011;10952;50.836;4.348;2023-03-23T09:13:04;6.27;;;1.90;;
21581;SDS011;10952;50.836;4.348;2023-03-23T09:15:29;6.33;;;2.07;;
21581;SDS011;10952;50.836;4.348;2023-03-23T09:17:56;7.53;;;1.70;;
21581;SDS011;10952;50.836;4.348;2023-03-23T09:20:23;7.73;;;2.10;;
21581;SDS011;10952;50.836;4.348;2023-03-23T09:22:51;5.97;;;1.80;;
21581;SDS011;10952;50.836;4.348;2023-03-23T09:25:18;4.33;;;1.70;;
21581;SDS011;10952;50.836;4.348;2023-03-23T09:27:47;5.60;;;2.27;;
21581;SDS011;10952;50.836;4.348;2023-03-23T09:30:18;7.03;;;3.37;;
21581;SDS011;10952;50.836;4.348;2023-03-23T09:32:44;5.87;;;2.53;;
21581;SDS011;10952;50.836;4.348;2023-03-23T09:35:10;5.27;;;1.60;;
21581;SDS011;10952;50.836;4.348;2023-03-23T09:37:39;4.40;;;1.73;;
21581;SDS011;10952;50.836;4.348;2023-03-23T09:40:06;4.47;;;2.03;;
21581;SDS011;10952;50.836;4.348;2023-03-23T09:48:24;8.67;;;2.10;;
21581;SDS011;10952;50.836;4.348;2023-03-23T09:53:40;6.80;;;2.43;;
21581;SDS011;10952;50.836;4.348;2023-03-23T09:56:10;4.63;;;2.20;;
21581;SDS011;10952;50.836;4.348;2023-03-23T09:59:00;5.33;;;2.17;;
21581;SDS011;10952;50.836;4.348;2023-03-23T10:01:52;6.07;;;2.00;;
21581;SDS011;10952;50.836;4.348;2023-03-23T10:07:10;6.13;;;2.80;;
21581;SDS011;10952;50.836;4.348;2023-03-23T10:09:38;3.70;;;1.60;;
21581;SDS011;10952;50.836;4.348;2023-03-23T10:12:27;7.30;;;2.10;;
21581;SDS011;10952;50.836;4.348;2023-03-23T10:15:20;11.47;;;2.97;;
21581;SDS011;10952;50.836;4.348;2023-03-23T10:18:01;14.77;;;5.23;;
21581;SDS011;10952;50.836;4.348;2023-03-23T10:21:02;8.10;;;2.53;;
21581;SDS011;10952;50.836;4.348;2023-03-23T10:26:12;5.17;;;2.27;;
21581;SDS011;10952;50.836;4.348;2023-03-23T10:31:42;7.87;;;2.63;;
21581;SDS011;10952;50.836;4.348;2023-03-23T10:37:20;9.67;;;2.80;;
21581;SDS011;10952;50.836;4.348;2023-03-23T10:39:53;9.53;;;3.23;;
21581;SDS011;10952;50.836;4.348;2023-03-23T10:42:28;10.07;;;3.47;;
21581;SDS011;10952;50.836;4.348;2023-03-23T10:44:54;10.57;;;3.70;;
21581;SDS011;10952;50.836;4.348;2023-03-23T10:47:21;7.10;;;2.40;;
21581;SDS011;10952;50.836;4.348;2023-03-23T10:49:49;8.13;;;2.80;;
21581;SDS011;10952;50.836;4.348;2023-03-23T10:55:00;7.87;;;3.23;;
21581;SDS011;10952;50.836;4.348;2023-03-23T10:57:28;9.87;;;3.27;;
21581;SDS011;10952;50.836;4.348;2023-03-23T10:59:59;11.90;;;4.70;;
21581;SDS011;10952;50.836;4.348;2023-03-23T11:02:38;8.80;;;2.90;;
21581;SDS011;10952;50.836;4.348;2023-03-23T11:05:13;7.10;;;2.60;;
21581;SDS011;10952;50.836;4.348;2023-03-23T11:08:03;10.27;;;2.77;;
21581;SDS011;10952;50.836;4.348;2023-03-23T11:10:38;7.87;;;2.73;;
21581;SDS011;10952;50.836;4.348;2023-03-23T11:13:31;14.20;;;3.20;;
21581;SDS011;10952;50.836;4.348;2023-03-23T11:15:57;9.47;;;3.07;;
21581;SDS011;10952;50.836;4.348;2023-03-23T11:18:34;7.57;;;3.30;;
21581;SDS011;10952;50.836;4.348;2023-03-23T11:21:04;9.57;;;3.83;;
21581;SDS011;10952;50.836;4.348;2023-03-23T11:23:41;11.67;;;3.47;;
21581;SDS011;10952;50.836;4.348;2023-03-23T11:26:32;9.83;;;2.83;;
21581;SDS011;10952;50.836;4.348;2023-03-23T11:31:41;13.07;;;2.50;;
21581;SDS011;10952;50.836;4.348;2023-03-23T11:34:13;5.87;;;2.03;;
21581;SDS011;10952;50.836;4.348;2023-03-23T11:36:48;7.53;;;2.10;;
21581;SDS011;10952;50.836;4.348;2023-03-23T11:39:26;6.87;;;2.10;;
21581;SDS011;10952;50.836;4.348;2023-03-23T11:41:58;8.67;;;2.37;;
21581;SDS011;10952;50.836;4.348;2023-03-23T11:44:41;10.70;;;2.23;;
21581;SDS011;10952;50.836;4.348;2023-03-23T11:52:40;4.30;;;1.53;;
21581;SDS011;10952;50.836;4.348;2023-03-23T11:55:24;7.13;;;2.23;;
21581;SDS011;10952;50.836;4.348;2023-03-23T11:57:54;8.23;;;2.00;;
21581;SDS011;10952;50.836;4.348;2023-03-23T12:00:23;7.47;;;3.50;;
21581;SDS011;10952;50.836;4.348;2023-03-23T12:02:55;14.00;;;3.53;;
21581;SDS011;10952;50.836;4.348;2023-03-23T12:05:43;7.03;;;1.93;;
21581;SDS011;10952;50.836;4.348;2023-03-23T12:11:28;8.07;;;2.37;;
21581;SDS011;10952;50.836;4.348;2023-03-23T12:19:56;6.43;;;1.97;;
21581;SDS011;10952;50.836;4.348;2023-03-23T12:27:44;9.30;;;2.27;;
21581;SDS011;10952;50.836;4.348;2023-03-23T12:44:02;11.13;;;2.27;;
21581;SDS011;10952;50.836;4.348;2023-03-23T12:47:03;9.53;;;2.50;;
21581;SDS011;10952;50.836;4.348;2023-03-23T12:55:01;10.27;;;2.67;;
21581;SDS011;10952;50.836;4.348;2023-03-23T13:02:56;10.27;;;3.17;;
21581;SDS011;10952;50.836;4.348;2023-03-23T13:05:35;9.40;;;2.90;;
21581;SDS011;10952;50.836;4.348;2023-03-23T13:08:15;8.47;;;2.07;;
21581;SDS011;10952;50.836;4.348;2023-03-23T13:10:48;5.37;;;1.90;;
21581;SDS011;10952;50.836;4.348;2023-03-23T13:13:26;8.03;;;1.83;;
21581;SDS011;10952;50.836;4.348;2023-03-23T13:16:07;11.47;;;2.43;;
21581;SDS011;10952;50.836;4.348;2023-03-23T13:21:46;8.33;;;2.30;;
21581;SDS011;10952;50.836;4.348;2023-03-23T13:24:22;11.70;;;2.47;;
21581;SDS011;10952;50.836;4.348;2023-03-23T13:26:52;8.00;;;2.03;;
21581;SDS011;10952;50.836;4.348;2023-03-23T13:29:23;12.73;;;2.00;;
21581;SDS011;10952;50.836;4.348;2023-03-23T13:31:50;10.27;;;2.50;;
21581;SDS011;10952;50.836;4.348;2023-03-23T13:34:23;9.73;;;2.43;;
21581;SDS011;10952;50.836;4.348;2023-03-23T13:39:25;7.10;;;2.40;;
21581;SDS011;10952;50.836;4.348;2023-03-23T13:42:01;6.70;;;2.30;;
21581;SDS011;10952;50.836;4.348;2023-03-23T13:44:39;7.47;;;2.40;;
21581;SDS011;10952;50.836;4.348;2023-03-23T13:47:07;12.03;;;2.70;;
21581;SDS011;10952;50.836;4.348;2023-03-23T13:49:51;9.83;;;2.67;;
21581;SDS011;10952;50.836;4.348;2023-03-23T13:55:29;16.57;;;3.10;;
21581;SDS011;10952;50.836;4.348;2023-03-23T14:05:49;9.03;;;2.60;;
21581;SDS011;10952;50.836;4.348;2023-03-23T14:10:54;13.10;;;3.50;;
21581;SDS011;10952;50.836;4.348;2023-03-23T14:13:37;11.90;;;2.57;;
21581;SDS011;10952;50.836;4.348;2023-03-23T14:16:19;11.70;;;2.83;;
21581;SDS011;10952;50.836;4.348;2023-03-23T14:18:57;16.43;;;3.47;;
21581;SDS011;10952;50.836;4.348;2023-03-23T14:21:34;13.47;;;2.80;;
21581;SDS011;10952;50.836;4.348;2023-03-23T14:24:05;9.10;;;2.73;;
21581;SDS011;10952;50.836;4.348;2023-03-23T14:26:36;18.93;;;3.40;;
21581;SDS011;10952;50.836;4.348;2023-03-23T14:29:03;17.43;;;3.23;;
21581;SDS011;10952;50.836;4.348;2023-03-23T14:31:30;12.23;;;3.33;;
21581;SDS011;10952;50.836;4.348;2023-03-23T14:33:56;10.23;;;2.80;;
21581;SDS011;10952;50.836;4.348;2023-03-23T14:36:28;16.70;;;4.33;;
21581;SDS011;10952;50.836;4.348;2023-03-23T14:39:37;15.47;;;3.43;;
21581;SDS011;10952;50.836;4.348;2023-03-23T14:41:44;14.63;;;3.57;;
21581;SDS011;10952;50.836;4.348;2023-03-23T14:44:14;9.50;;;2.40;;
21581;SDS011;10952;50.836;4.348;2023-03-23T14:46:43;10.93;;;2.10;;
21581;SDS011;10952;50.836;4.348;2023-03-23T14:49:11;10.33;;;2.43;;
21581;SDS011;10952;50.836;4.348;2023-03-23T14:51:51;8.63;;;2.10;;
21581;SDS011;10952;50.836;4.348;2023-03-23T14:54:25;10.90;;;2.17;;
21581;SDS011;10952;50.836;4.348;2023-03-23T14:56:53;8.90;;;2.23;;
21581;SDS011;10952;50.836;4.348;2023-03-23T14:59:19;10.87;;;2.20;;
21581;SDS011;10952;50.836;4.348;2023-03-23T15:01:46;13.03;;;2.00;;
21581;SDS011;10952;50.836;4.348;2023-03-23T15:04:20;8.60;;;3.43;;
21581;SDS011;10952;50.836;4.348;2023-03-23T15:06:51;10.10;;;2.37;;
21581;SDS011;10952;50.836;4.348;2023-03-23T15:09:24;11.07;;;2.43;;
21581;SDS011;10952;50.836;4.348;2023-03-23T15:12:00;11.23;;;3.03;;
21581;SDS011;10952;50.836;4.348;2023-03-23T15:14:43;12.60;;;2.83;;
21581;SDS011;10952;50.836;4.348;2023-03-23T15:17:18;14.67;;;3.00;;
21581;SDS011;10952;50.836;4.348;2023-03-23T15:19:48;18.90;;;4.33;;
21581;SDS011;10952;50.836;4.348;2023-03-23T15:24:47;14.30;;;5.30;;
21581;SDS011;10952;50.836;4.348;2023-03-23T15:29:53;11.63;;;4.77;;
21581;SDS011;10952;50.836;4.348;2023-03-23T15:32:27;13.17;;;3.70;;
21581;SDS011;10952;50.836;4.348;2023-03-23T15:35:19;15.33;;;3.50;;
21581;SDS011;10952;50.836;4.348;2023-03-23T15:37:57;13.37;;;3.07;;
21581;SDS011;10952;50.836;4.348;2023-03-23T15:40:24;13.00;;;2.87;;
21581;SDS011;10952;50.836;4.348;2023-03-23T15:45:32;14.63;;;2.90;;
21581;SDS011;10952;50.836;4.348;2023-03-23T15:48:05;12.40;;;3.47;;
21581;SDS011;10952;50.836;4.348;2023-03-23T15:50:36;13.40;;;3.30;;
21581;SDS011;10952;50.836;4.348;2023-03-23T15:53:38;15.93;;;3.70;;
21581;SDS011;10952;50.836;4.348;2023-03-23T15:56:03;9.27;;;2.57;;
21581;SDS011;10952;50.836;4.348;2023-03-23T15:58:30;11.30;;;3.70;;
21581;SDS011;10952;50.836;4.348;2023-03-23T16:00:57;10.27;;;2.83;;
21581;SDS011;10952;50.836;4.348;2023-03-23T16:03:28;16.77;;;3.30;;
21581;SDS011;10952;50.836;4.348;2023-03-23T16:06:02;13.87;;;2.83;;
21581;SDS011;10952;50.836;4.348;2023-03-23T16:08:28;11.47;;;2.90;;
21581;SDS011;10952;50.836;4.348;2023-03-23T16:10:54;15.57;;;2.30;;
21581;SDS011;10952;50.836;4.348;2023-03-23T16:13:20;10.73;;;2.83;;
21581;SDS011;10952;50.836;4.348;2023-03-23T16:15:48;8.60;;;2.23;;
21581;SDS011;10952;50.836;4.348;2023-03-23T16:18:16;9.00;;;2.10;;
21581;SDS011;10952;50.836;4.348;2023-03-23T16:20:45;9.03;;;2.40;;
21581;SDS011;10952;50.836;4.348;2023-03-23T16:23:14;10.30;;;2.90;;
21581;SDS011;10952;50.836;4.348;2023-03-23T16:25:40;7.27;;;2.70;;
21581;SDS011;10952;50.836;4.348;2023-03-23T16:28:07;12.40;;;2.83;;
21581;SDS011;10952;50.836;4.348;2023-03-23T16:30:35;11.63;;;3.23;;
21581;SDS011;10952;50.836;4.348;2023-03-23T16:33:01;9.77;;;3.63;;
21581;SDS011;10952;50.836;4.348;2023-03-23T16:35:27;10.33;;;3.63;;
21581;SDS011;10952;50.836;4.348;2023-03-23T16:37:53;13.90;;;3.43;;
21581;SDS011;10952;50.836;4.348;2023-03-23T16:40:21;16.10;;;4.10;;
21581;SDS011;10952;50.836;4.348;2023-03-23T16:42:47;16.40;;;4.33;;
21581;SDS011;10952;50.836;4.348;2023-03-23T16:45:15;11.70;;;3.83;;
21581;SDS011;10952;50.836;4.348;2023-03-23T16:47:41;11.83;;;3.30;;
21581;SDS011;10952;50.836;4.348;2023-03-23T16:50:08;17.37;;;3.40;;
21581;SDS011;10952;50.836;4.348;2023-03-23T16:52:37;9.17;;;3.07;;
21581;SDS011;10952;50.836;4.348;2023-03-23T16:55:04;12.60;;;2.83;;
21581;SDS011;10952;50.836;4.348;2023-03-23T16:57:31;12.10;;;2.80;;
21581;SDS011;10952;50.836;4.348;2023-03-23T16:59:59;8.43;;;2.70;;